sensor_id;sensor_type;location;lat;lon;timestamp;pressure;altitude;pressure_sealevel;temperature;humidity
9257;BME280;4665;51.368;6.782;2022-07-05T00:02:15;101724.38;;;17.19;72.59
9257;BME280;4665;51.368;6.782;2022-07-05T00:04:41;101748.28;;;17.22;72.90
9257;BME280;4665;51.368;6.782;2022-07-05T00:07:07;101723.97;;;16.99;73.36
9257;BME280;4665;51.368;6.782;2022-07-05T00:09:55;101742.78;;;17.08;73.91
9257;BME280;4665;51.368;6.782;2022-07-05T00:12:24;101760.31;;;17.03;74.06
9257;BME280;4665;51.368;6.782;2022-07-05T00:14:49;101749.41;;;16.97;73.85
9257;BME280;4665;51.368;6.782;2022-07-05T00:17:15;101749.75;;;16.86;74.46
9257;BME280;4665;51.368;6.782;2022-07-05T00:19:42;101747.59;;;16.81;74.91
9257;BME280;4665;51.368;6.782;2022-07-05T00:22:07;101744.34;;;16.77;75.82
9257;BME280;4665;51.368;6.782;2022-07-05T00:24:33;101738.34;;;16.67;75.59
9257;BME280;4665;51.368;6.782;2022-07-05T00:26:58;101739.00;;;16.61;75.69
9257;BME280;4665;51.368;6.782;2022-07-05T00:29:24;101730.97;;;16.53;76.10
9257;BME280;4665;51.368;6.782;2022-07-05T00:31:50;101719.53;;;16.42;76.27
9257;BME280;4665;51.368;6.782;2022-07-05T00:34:15;101724.59;;;16.46;76.33
9257;BME280;4665;51.368;6.782;2022-07-05T00:36:41;101743.41;;;16.54;76.68
9257;BME280;4665;51.368;6.782;2022-07-05T00:39:07;101735.50;;;16.52;76.58
9257;BME280;4665;51.368;6.782;2022-07-05T00:41:33;101724.75;;;16.36;76.73
9257;BME280;4665;51.368;6.782;2022-07-05T00:44:04;101730.31;;;16.42;77.01
9257;BME280;4665;51.368;6.782;2022-07-05T00:46:30;101739.72;;;16.47;76.93
9257;BME280;4665;51.368;6.782;2022-07-05T00:48:57;101746.44;;;16.42;77.30
9257;BME280;4665;51.368;6.782;2022-07-05T00:51:23;101748.13;;;16.44;76.83
9257;BME280;4665;51.368;6.782;2022-07-05T00:53:49;101730.66;;;16.39;76.57
9257;BME280;4665;51.368;6.782;2022-07-05T00:56:14;101725.94;;;16.33;77.00
9257;BME280;4665;51.368;6.782;2022-07-05T00:58:40;101718.53;;;16.35;76.89
9257;BME280;4665;51.368;6.782;2022-07-05T01:01:08;101735.69;;;16.42;77.09
9257;BME280;4665;51.368;6.782;2022-07-05T01:03:34;101729.31;;;16.44;77.19
9257;BME280;4665;51.368;6.782;2022-07-05T01:06:06;101732.00;;;16.44;77.21
9257;BME280;4665;51.368;6.782;2022-07-05T01:08:35;101736.53;;;16.35;78.31
9257;BME280;4665;51.368;6.782;2022-07-05T01:11:02;101733.84;;;16.35;77.72
9257;BME280;4665;51.368;6.782;2022-07-05T01:13:27;101734.00;;;16.33;78.47
9257;BME280;4665;51.368;6.782;2022-07-05T01:15:53;101761.38;;;16.45;78.51
9257;BME280;4665;51.368;6.782;2022-07-05T01:18:20;101742.06;;;16.33;77.58
9257;BME280;4665;51.368;6.782;2022-07-05T01:20:49;101739.22;;;16.35;77.59
9257;BME280;4665;51.368;6.782;2022-07-05T01:23:16;101731.31;;;16.33;78.33
9257;BME280;4665;51.368;6.782;2022-07-05T01:25:42;101736.88;;;16.32;78.92
9257;BME280;4665;51.368;6.782;2022-07-05T01:28:07;101759.72;;;16.44;78.94
9257;BME280;4665;51.368;6.782;2022-07-05T01:30:34;101762.56;;;16.42;79.51
9257;BME280;4665;51.368;6.782;2022-07-05T01:33:00;101732.34;;;16.24;79.80
9257;BME280;4665;51.368;6.782;2022-07-05T01:35:25;101736.03;;;16.23;79.62
9257;BME280;4665;51.368;6.782;2022-07-05T01:37:51;101738.56;;;16.25;79.89
9257;BME280;4665;51.368;6.782;2022-07-05T01:40:18;101747.81;;;16.30;79.94
9257;BME280;4665;51.368;6.782;2022-07-05T01:42:44;101749.47;;;16.31;79.91
9257;BME280;4665;51.368;6.782;2022-07-05T01:45:10;101741.78;;;16.20;80.14
9257;BME280;4665;51.368;6.782;2022-07-05T01:47:38;101765.94;;;16.28;81.35
9257;BME280;4665;51.368;6.782;2022-07-05T01:50:07;101757.91;;;16.20;81.06
9257;BME280;4665;51.368;6.782;2022-07-05T01:52:36;101740.41;;;16.16;81.03
9257;BME280;4665;51.368;6.782;2022-07-05T01:55:04;101750.00;;;16.18;81.05
9257;BME280;4665;51.368;6.782;2022-07-05T01:57:29;101734.19;;;16.07;81.45
9257;BME280;4665;51.368;6.782;2022-07-05T01:59:55;101734.03;;;16.09;81.26
9257;BME280;4665;51.368;6.782;2022-07-05T02:02:20;101729.66;;;16.08;81.08
9257;BME280;4665;51.368;6.782;2022-07-05T02:04:46;101750.00;;;16.18;80.99
9257;BME280;4665;51.368;6.782;2022-07-05T02:07:11;101742.44;;;16.14;81.05
9257;BME280;4665;51.368;6.782;2022-07-05T02:09:37;101745.97;;;16.06;81.32
9257;BME280;4665;51.368;6.782;2022-07-05T02:12:04;101728.84;;;15.99;81.85
9257;BME280;4665;51.368;6.782;2022-07-05T02:14:29;101742.06;;;16.01;82.39
9257;BME280;4665;51.368;6.782;2022-07-05T02:16:55;101722.06;;;15.87;82.40
9257;BME280;4665;51.368;6.782;2022-07-05T02:19:20;101743.75;;;15.93;83.39
9257;BME280;4665;51.368;6.782;2022-07-05T02:21:46;101733.84;;;15.86;83.66
9257;BME280;4665;51.368;6.782;2022-07-05T02:24:11;101728.78;;;15.83;83.96
9257;BME280;4665;51.368;6.782;2022-07-05T02:26:36;101730.31;;;15.85;84.34
9257;BME280;4665;51.368;6.782;2022-07-05T02:29:03;101727.31;;;15.88;84.42
9257;BME280;4665;51.368;6.782;2022-07-05T02:31:29;101733.50;;;15.89;84.44
9257;BME280;4665;51.368;6.782;2022-07-05T02:33:55;101735.34;;;15.88;84.79
9257;BME280;4665;51.368;6.782;2022-07-05T02:36:21;101746.78;;;15.90;84.92
9257;BME280;4665;51.368;6.782;2022-07-05T02:38:46;101744.75;;;15.76;85.69
9257;BME280;4665;51.368;6.782;2022-07-05T02:41:12;101751.31;;;15.73;85.84
9257;BME280;4665;51.368;6.782;2022-07-05T02:43:39;101746.69;;;15.57;86.08
9257;BME280;4665;51.368;6.782;2022-07-05T02:46:06;101741.63;;;15.46;85.93
9257;BME280;4665;51.368;6.782;2022-07-05T02:48:32;101750.66;;;15.45;86.03
9257;BME280;4665;51.368;6.782;2022-07-05T02:50:57;101733.53;;;15.30;86.55
9257;BME280;4665;51.368;6.782;2022-07-05T02:53:24;101730.16;;;15.28;86.60
9257;BME280;4665;51.368;6.782;2022-07-05T02:55:49;101742.91;;;15.26;87.11
9257;BME280;4665;51.368;6.782;2022-07-05T02:58:15;101763.72;;;15.32;87.70
9257;BME280;4665;51.368;6.782;2022-07-05T03:00:45;101762.06;;;15.39;87.37
9257;BME280;4665;51.368;6.782;2022-07-05T03:03:13;101743.25;;;15.31;86.98
9257;BME280;4665;51.368;6.782;2022-07-05T03:05:38;101760.56;;;15.36;86.90
9257;BME280;4665;51.368;6.782;2022-07-05T03:08:04;101744.91;;;15.24;86.56
9257;BME280;4665;51.368;6.782;2022-07-05T03:10:30;101743.03;;;15.24;86.73
9257;BME280;4665;51.368;6.782;2022-07-05T03:12:55;101748.25;;;15.26;86.32
9257;BME280;4665;51.368;6.782;2022-07-05T03:15:20;101746.75;;;15.23;86.54
9257;BME280;4665;51.368;6.782;2022-07-05T03:17:46;101757.97;;;15.27;86.83
9257;BME280;4665;51.368;6.782;2022-07-05T03:20:11;101771.41;;;15.27;87.20
9257;BME280;4665;51.368;6.782;2022-07-05T03:22:36;101767.66;;;15.11;87.42
9257;BME280;4665;51.368;6.782;2022-07-05T03:25:02;101750.31;;;14.98;87.88
9257;BME280;4665;51.368;6.782;2022-07-05T03:27:28;101776.50;;;15.04;88.15
9257;BME280;4665;51.368;6.782;2022-07-05T03:29:53;101775.88;;;15.10;88.09
9257;BME280;4665;51.368;6.782;2022-07-05T03:32:19;101783.78;;;15.11;88.16
9257;BME280;4665;51.368;6.782;2022-07-05T03:34:44;101786.75;;;15.08;88.27
9257;BME280;4665;51.368;6.782;2022-07-05T03:37:09;101752.66;;;14.92;88.46
9257;BME280;4665;51.368;6.782;2022-07-05T03:39:35;101757.84;;;14.94;88.22
9257;BME280;4665;51.368;6.782;2022-07-05T03:42:00;101756.16;;;14.93;88.79
9257;BME280;4665;51.368;6.782;2022-07-05T03:44:25;101770.94;;;14.97;89.38
9257;BME280;4665;51.368;6.782;2022-07-05T03:46:52;101769.03;;;14.89;89.37
9257;BME280;4665;51.368;6.782;2022-07-05T03:49:17;101762.13;;;14.79;89.55
9257;BME280;4665;51.368;6.782;2022-07-05T03:51:43;101767.78;;;14.76;89.94
9257;BME280;4665;51.368;6.782;2022-07-05T03:54:08;101775.47;;;14.70;90.06
9257;BME280;4665;51.368;6.782;2022-07-05T03:56:34;101766.91;;;14.67;90.67
9257;BME280;4665;51.368;6.782;2022-07-05T03:58:59;101767.22;;;14.64;91.11
9257;BME280;4665;51.368;6.782;2022-07-05T04:01:24;101764.72;;;14.62;91.22
9257;BME280;4665;51.368;6.782;2022-07-05T04:03:50;101771.41;;;14.66;91.60
9257;BME280;4665;51.368;6.782;2022-07-05T04:06:16;101777.47;;;14.68;91.27
9257;BME280;4665;51.368;6.782;2022-07-05T04:08:41;101763.19;;;14.60;91.31
9257;BME280;4665;51.368;6.782;2022-07-05T04:11:07;101784.00;;;14.66;91.23
9257;BME280;4665;51.368;6.782;2022-07-05T04:13:34;101767.31;;;14.54;91.16
9257;BME280;4665;51.368;6.782;2022-07-05T04:16:00;101766.34;;;14.55;91.39
9257;BME280;4665;51.368;6.782;2022-07-05T04:18:26;101788.88;;;14.70;91.11
9257;BME280;4665;51.368;6.782;2022-07-05T04:20:51;101770.28;;;14.51;91.20
9257;BME280;4665;51.368;6.782;2022-07-05T04:23:16;101771.69;;;14.55;91.63
9257;BME280;4665;51.368;6.782;2022-07-05T04:25:42;101782.69;;;14.70;92.05
9257;BME280;4665;51.368;6.782;2022-07-05T04:28:07;101770.72;;;14.64;92.26
9257;BME280;4665;51.368;6.782;2022-07-05T04:30:33;101781.31;;;14.66;92.40
9257;BME280;4665;51.368;6.782;2022-07-05T04:32:59;101790.59;;;14.71;92.68
9257;BME280;4665;51.368;6.782;2022-07-05T04:35:24;101792.78;;;14.76;92.70
9257;BME280;4665;51.368;6.782;2022-07-05T04:37:50;101802.03;;;14.82;92.65
9257;BME280;4665;51.368;6.782;2022-07-05T04:40:15;101803.41;;;14.86;92.76
9257;BME280;4665;51.368;6.782;2022-07-05T04:42:41;101774.84;;;14.77;92.73
9257;BME280;4665;51.368;6.782;2022-07-05T04:45:07;101777.91;;;14.82;92.96
9257;BME280;4665;51.368;6.782;2022-07-05T04:47:33;101793.03;;;14.91;92.80
9257;BME280;4665;51.368;6.782;2022-07-05T04:50:03;101780.25;;;14.85;93.97
9257;BME280;4665;51.368;6.782;2022-07-05T04:52:29;101798.63;;;14.98;93.56
9257;BME280;4665;51.368;6.782;2022-07-05T04:54:54;101796.78;;;14.98;92.70
9257;BME280;4665;51.368;6.782;2022-07-05T04:57:20;101787.53;;;14.92;92.57
9257;BME280;4665;51.368;6.782;2022-07-05T04:59:45;101790.22;;;14.92;92.04
9257;BME280;4665;51.368;6.782;2022-07-05T05:02:11;101785.34;;;14.96;91.89
9257;BME280;4665;51.368;6.782;2022-07-05T05:04:37;101796.78;;;14.98;90.90
9257;BME280;4665;51.368;6.782;2022-07-05T05:07:02;101802.19;;;15.06;90.90
9257;BME280;4665;51.368;6.782;2022-07-05T05:09:28;101792.81;;;15.10;89.10
9257;BME280;4665;51.368;6.782;2022-07-05T05:11:53;101793.50;;;15.12;87.93
9257;BME280;4665;51.368;6.782;2022-07-05T05:14:19;101800.94;;;15.27;87.64
9257;BME280;4665;51.368;6.782;2022-07-05T05:16:44;101821.16;;;15.39;86.86
9257;BME280;4665;51.368;6.782;2022-07-05T05:19:10;101816.63;;;15.40;87.19
9257;BME280;4665;51.368;6.782;2022-07-05T05:21:35;101817.59;;;15.39;87.61
9257;BME280;4665;51.368;6.782;2022-07-05T05:24:01;101825.69;;;15.47;86.99
9257;BME280;4665;51.368;6.782;2022-07-05T05:26:26;101806.22;;;15.36;86.41
9257;BME280;4665;51.368;6.782;2022-07-05T05:28:52;101824.19;;;15.52;85.74
9257;BME280;4665;51.368;6.782;2022-07-05T05:31:17;101814.31;;;15.53;86.09
9257;BME280;4665;51.368;6.782;2022-07-05T05:33:44;101821.22;;;15.64;85.81
9257;BME280;4665;51.368;6.782;2022-07-05T05:36:09;101803.09;;;15.57;85.71
9257;BME280;4665;51.368;6.782;2022-07-05T05:38:35;101798.75;;;15.65;85.92
9257;BME280;4665;51.368;6.782;2022-07-05T05:41:00;101810.22;;;15.75;85.22
9257;BME280;4665;51.368;6.782;2022-07-05T05:43:26;101826.72;;;15.88;85.44
9257;BME280;4665;51.368;6.782;2022-07-05T05:45:51;101811.44;;;15.81;87.20
9257;BME280;4665;51.368;6.782;2022-07-05T05:48:17;101811.59;;;15.79;84.36
9257;BME280;4665;51.368;6.782;2022-07-05T05:50:43;101812.75;;;15.85;83.39
9257;BME280;4665;51.368;6.782;2022-07-05T05:53:09;101815.81;;;15.90;82.37
9257;BME280;4665;51.368;6.782;2022-07-05T05:55:34;101834.16;;;16.11;82.19
9257;BME280;4665;51.368;6.782;2022-07-05T05:58:16;101844.06;;;16.27;81.31
9257;BME280;4665;51.368;6.782;2022-07-05T06:00:42;101848.44;;;16.36;81.63
9257;BME280;4665;51.368;6.782;2022-07-05T06:03:08;101848.47;;;16.44;80.17
9257;BME280;4665;51.368;6.782;2022-07-05T06:05:34;101840.94;;;16.48;76.95
9257;BME280;4665;51.368;6.782;2022-07-05T06:08:00;101848.31;;;16.54;76.17
9257;BME280;4665;51.368;6.782;2022-07-05T06:10:30;101841.94;;;16.55;77.93
9257;BME280;4665;51.368;6.782;2022-07-05T06:12:58;101836.34;;;16.56;74.19
9257;BME280;4665;51.368;6.782;2022-07-05T06:15:24;101854.69;;;16.69;74.68
9257;BME280;4665;51.368;6.782;2022-07-05T06:17:50;101858.22;;;16.78;74.91
9257;BME280;4665;51.368;6.782;2022-07-05T06:20:20;101855.22;;;16.81;74.56
9257;BME280;4665;51.368;6.782;2022-07-05T06:22:47;101857.41;;;16.86;75.61
9257;BME280;4665;51.368;6.782;2022-07-05T06:25:13;101864.66;;;16.85;76.30
9257;BME280;4665;51.368;6.782;2022-07-05T06:27:47;101867.16;;;16.87;77.50
9257;BME280;4665;51.368;6.782;2022-07-05T06:30:16;101870.69;;;16.95;77.89
9257;BME280;4665;51.368;6.782;2022-07-05T06:32:43;101868.63;;;17.14;78.41
9257;BME280;4665;51.368;6.782;2022-07-05T06:35:09;101865.22;;;17.28;76.93
9257;BME280;4665;51.368;6.782;2022-07-05T06:37:55;101869.09;;;17.34;75.94
9257;BME280;4665;51.368;6.782;2022-07-05T06:40:32;101860.50;;;17.30;76.36
9257;BME280;4665;51.368;6.782;2022-07-05T06:42:59;101868.56;;;17.38;76.13
9257;BME280;4665;51.368;6.782;2022-07-05T06:45:26;101871.91;;;17.40;72.73
9257;BME280;4665;51.368;6.782;2022-07-05T06:48:03;101866.50;;;17.49;72.17
9257;BME280;4665;51.368;6.782;2022-07-05T06:50:31;101865.94;;;17.61;71.65
9257;BME280;4665;51.368;6.782;2022-07-05T06:52:56;101871.28;;;17.78;70.98
9257;BME280;4665;51.368;6.782;2022-07-05T06:55:22;101871.09;;;17.87;70.63
9257;BME280;4665;51.368;6.782;2022-07-05T06:57:48;101865.88;;;17.86;68.71
9257;BME280;4665;51.368;6.782;2022-07-05T07:00:14;101876.28;;;17.97;68.93
9257;BME280;4665;51.368;6.782;2022-07-05T07:02:40;101884.97;;;18.07;66.39
9257;BME280;4665;51.368;6.782;2022-07-05T07:05:07;101865.47;;;17.97;63.71
9257;BME280;4665;51.368;6.782;2022-07-05T07:07:32;101884.97;;;18.07;60.82
9257;BME280;4665;51.368;6.782;2022-07-05T07:10:17;101890.69;;;18.13;60.17
9257;BME280;4665;51.368;6.782;2022-07-05T07:12:42;101879.53;;;18.16;59.01
9257;BME280;4665;51.368;6.782;2022-07-05T07:15:08;101889.50;;;18.38;61.27
9257;BME280;4665;51.368;6.782;2022-07-05T07:17:33;101879.16;;;18.65;59.89
9257;BME280;4665;51.368;6.782;2022-07-05T07:19:59;101883.47;;;18.82;59.02
9257;BME280;4665;51.368;6.782;2022-07-05T07:22:24;101883.78;;;18.79;58.09
9257;BME280;4665;51.368;6.782;2022-07-05T07:24:49;101888.03;;;18.74;57.65
9257;BME280;4665;51.368;6.782;2022-07-05T07:27:15;101887.84;;;18.75;58.51
9257;BME280;4665;51.368;6.782;2022-07-05T07:29:40;101887.31;;;18.80;57.51
9257;BME280;4665;51.368;6.782;2022-07-05T07:32:07;101886.63;;;18.86;61.56
9257;BME280;4665;51.368;6.782;2022-07-05T07:34:34;101884.47;;;18.81;58.84
9257;BME280;4665;51.368;6.782;2022-07-05T07:36:59;101895.25;;;18.81;58.49
9257;BME280;4665;51.368;6.782;2022-07-05T07:39:26;101887.00;;;18.75;58.78
9257;BME280;4665;51.368;6.782;2022-07-05T07:41:52;101884.00;;;18.78;58.88
9257;BME280;4665;51.368;6.782;2022-07-05T07:44:18;101897.25;;;18.87;57.74
9257;BME280;4665;51.368;6.782;2022-07-05T07:46:44;101895.66;;;18.93;58.36
9257;BME280;4665;51.368;6.782;2022-07-05T07:49:10;101902.31;;;19.05;58.98
9257;BME280;4665;51.368;6.782;2022-07-05T07:51:36;101894.50;;;19.10;58.87
9257;BME280;4665;51.368;6.782;2022-07-05T07:54:02;101901.28;;;19.21;57.76
9257;BME280;4665;51.368;6.782;2022-07-05T07:56:27;101883.41;;;19.20;57.72
9257;BME280;4665;51.368;6.782;2022-07-05T07:58:53;101899.44;;;19.37;56.50
9257;BME280;4665;51.368;6.782;2022-07-05T08:01:18;101881.00;;;19.25;58.67
9257;BME280;4665;51.368;6.782;2022-07-05T08:03:44;101871.13;;;19.18;57.63
9257;BME280;4665;51.368;6.782;2022-07-05T08:06:11;101887.50;;;19.16;58.98
9257;BME280;4665;51.368;6.782;2022-07-05T08:08:38;101896.72;;;19.07;56.01
9257;BME280;4665;51.368;6.782;2022-07-05T08:11:04;101889.72;;;18.98;55.86
9257;BME280;4665;51.368;6.782;2022-07-05T08:13:30;101909.66;;;18.97;56.86
9257;BME280;4665;51.368;6.782;2022-07-05T08:15:56;101905.78;;;18.91;57.92
9257;BME280;4665;51.368;6.782;2022-07-05T08:18:21;101916.44;;;18.92;56.41
9257;BME280;4665;51.368;6.782;2022-07-05T08:21:05;101914.38;;;18.95;56.81
9257;BME280;4665;51.368;6.782;2022-07-05T08:23:49;101915.38;;;18.93;56.49
9257;BME280;4665;51.368;6.782;2022-07-05T08:26:14;101910.38;;;18.90;55.76
9257;BME280;4665;51.368;6.782;2022-07-05T08:28:40;101910.00;;;18.93;56.95
9257;BME280;4665;51.368;6.782;2022-07-05T08:31:05;101906.66;;;18.91;57.85
9257;BME280;4665;51.368;6.782;2022-07-05T08:33:30;101904.41;;;18.95;56.80
9257;BME280;4665;51.368;6.782;2022-07-05T08:35:56;101905.56;;;19.01;56.51
9257;BME280;4665;51.368;6.782;2022-07-05T08:38:21;101905.47;;;19.09;59.51
9257;BME280;4665;51.368;6.782;2022-07-05T08:40:49;101896.81;;;19.28;56.04
9257;BME280;4665;51.368;6.782;2022-07-05T08:43:16;101906.72;;;19.51;56.77
9257;BME280;4665;51.368;6.782;2022-07-05T08:45:43;101896.81;;;19.58;55.54
9257;BME280;4665;51.368;6.782;2022-07-05T08:48:09;101904.13;;;19.87;52.98
9257;BME280;4665;51.368;6.782;2022-07-05T08:50:37;101906.03;;;19.93;53.26
9257;BME280;4665;51.368;6.782;2022-07-05T08:53:03;101904.94;;;19.88;53.53
9257;BME280;4665;51.368;6.782;2022-07-05T08:55:31;101911.31;;;19.80;52.46
9257;BME280;4665;51.368;6.782;2022-07-05T08:57:57;101914.09;;;19.72;54.17
9257;BME280;4665;51.368;6.782;2022-07-05T09:00:23;101908.91;;;19.70;52.68
9257;BME280;4665;51.368;6.782;2022-07-05T09:02:50;101903.38;;;19.79;52.85
9257;BME280;4665;51.368;6.782;2022-07-05T09:05:18;101912.53;;;19.78;53.88
9257;BME280;4665;51.368;6.782;2022-07-05T09:07:54;101905.63;;;19.75;53.66
9257;BME280;4665;51.368;6.782;2022-07-05T09:10:22;101905.69;;;19.67;52.38
9257;BME280;4665;51.368;6.782;2022-07-05T09:12:50;101909.50;;;19.58;52.75
9257;BME280;4665;51.368;6.782;2022-07-05T09:15:15;101912.97;;;19.66;53.37
9257;BME280;4665;51.368;6.782;2022-07-05T09:17:44;101904.38;;;19.63;54.50
9257;BME280;4665;51.368;6.782;2022-07-05T09:20:11;101907.34;;;19.68;53.49
9257;BME280;4665;51.368;6.782;2022-07-05T09:22:45;101908.34;;;19.75;55.24
9257;BME280;4665;51.368;6.782;2022-07-05T09:27:52;101919.78;;;19.92;50.36
9257;BME280;4665;51.368;6.782;2022-07-05T09:30:24;101912.69;;;19.76;49.90
9257;BME280;4665;51.368;6.782;2022-07-05T09:33:06;101919.16;;;19.75;50.89
9257;BME280;4665;51.368;6.782;2022-07-05T09:35:34;101909.72;;;19.71;51.54
9257;BME280;4665;51.368;6.782;2022-07-05T09:38:00;101910.38;;;19.73;51.70
9257;BME280;4665;51.368;6.782;2022-07-05T09:40:29;101912.13;;;19.81;51.86
9257;BME280;4665;51.368;6.782;2022-07-05T09:43:12;101912.22;;;19.72;52.08
9257;BME280;4665;51.368;6.782;2022-07-05T09:45:38;101911.47;;;19.79;52.28
9257;BME280;4665;51.368;6.782;2022-07-05T09:48:06;101908.13;;;19.76;54.01
9257;BME280;4665;51.368;6.782;2022-07-05T09:50:36;101909.69;;;19.86;53.08
9257;BME280;4665;51.368;6.782;2022-07-05T09:53:02;101912.75;;;19.97;48.12
9257;BME280;4665;51.368;6.782;2022-07-05T09:55:27;101908.47;;;20.03;49.74
9257;BME280;4665;51.368;6.782;2022-07-05T09:57:53;101911.38;;;20.23;47.95
9257;BME280;4665;51.368;6.782;2022-07-05T10:00:22;101907.78;;;20.37;45.94
9257;BME280;4665;51.368;6.782;2022-07-05T10:02:56;101917.09;;;20.50;46.91
9257;BME280;4665;51.368;6.782;2022-07-05T10:05:30;101911.94;;;20.55;47.51
9257;BME280;4665;51.368;6.782;2022-07-05T10:08:00;101916.50;;;20.54;47.91
9257;BME280;4665;51.368;6.782;2022-07-05T10:10:31;101904.75;;;20.62;44.93
9257;BME280;4665;51.368;6.782;2022-07-05T10:12:58;101913.69;;;20.63;47.39
9257;BME280;4665;51.368;6.782;2022-07-05T10:15:30;101914.59;;;20.70;46.13
9257;BME280;4665;51.368;6.782;2022-07-05T10:17:59;101916.88;;;20.51;47.96
9257;BME280;4665;51.368;6.782;2022-07-05T10:25:28;101914.72;;;20.40;46.53
9257;BME280;4665;51.368;6.782;2022-07-05T10:27:54;101910.81;;;20.28;47.06
9257;BME280;4665;51.368;6.782;2022-07-05T10:30:22;101916.31;;;20.34;45.27
9257;BME280;4665;51.368;6.782;2022-07-05T10:32:48;101905.66;;;20.33;45.12
9257;BME280;4665;51.368;6.782;2022-07-05T10:35:15;101899.41;;;20.32;45.70
9257;BME280;4665;51.368;6.782;2022-07-05T10:37:44;101893.50;;;20.44;45.27
9257;BME280;4665;51.368;6.782;2022-07-05T10:40:11;101896.66;;;20.47;45.45
9257;BME280;4665;51.368;6.782;2022-07-05T10:42:42;101905.81;;;20.68;48.01
9257;BME280;4665;51.368;6.782;2022-07-05T10:45:33;101903.34;;;20.94;45.44
9257;BME280;4665;51.368;6.782;2022-07-05T10:56:00;101906.53;;;20.98;46.32
9257;BME280;4665;51.368;6.782;2022-07-05T10:58:37;101913.19;;;21.02;45.89
9257;BME280;4665;51.368;6.782;2022-07-05T11:03:40;101913.66;;;21.06;44.07
9257;BME280;4665;51.368;6.782;2022-07-05T11:06:06;101914.34;;;21.14;42.55
9257;BME280;4665;51.368;6.782;2022-07-05T11:17:17;101917.03;;;20.86;41.58
9257;BME280;4665;51.368;6.782;2022-07-05T11:20:02;101910.19;;;20.90;41.08
9257;BME280;4665;51.368;6.782;2022-07-05T11:22:29;101896.94;;;20.74;42.64
9257;BME280;4665;51.368;6.782;2022-07-05T11:25:03;101903.09;;;20.61;44.05
9257;BME280;4665;51.368;6.782;2022-07-05T11:27:36;101893.47;;;20.58;44.74
9257;BME280;4665;51.368;6.782;2022-07-05T11:30:24;101908.16;;;20.71;44.64
9257;BME280;4665;51.368;6.782;2022-07-05T11:36:28;101889.06;;;21.07;42.87
9257;BME280;4665;51.368;6.782;2022-07-05T11:39:17;101884.44;;;21.01;44.76
9257;BME280;4665;51.368;6.782;2022-07-05T11:41:50;101873.69;;;20.86;45.26
9257;BME280;4665;51.368;6.782;2022-07-05T11:44:18;101873.56;;;20.94;44.28
9257;BME280;4665;51.368;6.782;2022-07-05T11:46:50;101881.78;;;21.08;45.01
9257;BME280;4665;51.368;6.782;2022-07-05T11:49:34;101857.38;;;21.01;43.25
9257;BME280;4665;51.368;6.782;2022-07-05T11:52:03;101858.94;;;21.17;43.13
9257;BME280;4665;51.368;6.782;2022-07-05T11:54:32;101866.09;;;21.31;40.63
9257;BME280;4665;51.368;6.782;2022-07-05T11:57:15;101854.16;;;21.19;40.93
9257;BME280;4665;51.368;6.782;2022-07-05T11:59:49;101854.16;;;21.54;40.31
9257;BME280;4665;51.368;6.782;2022-07-05T12:02:17;101849.19;;;21.64;39.83
9257;BME280;4665;51.368;6.782;2022-07-05T12:05:04;101865.94;;;21.81;39.96
9257;BME280;4665;51.368;6.782;2022-07-05T12:07:39;101860.44;;;21.61;41.15
9257;BME280;4665;51.368;6.782;2022-07-05T12:10:10;101847.09;;;21.25;41.99
9257;BME280;4665;51.368;6.782;2022-07-05T12:13:06;101838.13;;;21.24;42.34
9257;BME280;4665;51.368;6.782;2022-07-05T12:15:37;101853.75;;;21.57;42.14
9257;BME280;4665;51.368;6.782;2022-07-05T12:18:08;101837.72;;;21.62;42.34
9257;BME280;4665;51.368;6.782;2022-07-05T12:20:40;101833.50;;;21.53;42.47
9257;BME280;4665;51.368;6.782;2022-07-05T12:23:16;101838.31;;;21.57;42.79
9257;BME280;4665;51.368;6.782;2022-07-05T12:25:51;101836.69;;;21.63;43.58
9257;BME280;4665;51.368;6.782;2022-07-05T12:28:38;101850.28;;;21.76;42.29
9257;BME280;4665;51.368;6.782;2022-07-05T12:31:23;101845.13;;;21.95;41.10
9257;BME280;4665;51.368;6.782;2022-07-05T12:33:55;101850.38;;;22.03;40.48
9257;BME280;4665;51.368;6.782;2022-07-05T12:36:49;101838.75;;;21.61;41.47
9257;BME280;4665;51.368;6.782;2022-07-05T12:40:07;101839.16;;;21.58;42.24
9257;BME280;4665;51.368;6.782;2022-07-05T12:45:33;101830.81;;;21.59;42.41
9257;BME280;4665;51.368;6.782;2022-07-05T12:48:21;101830.44;;;21.69;42.42
9257;BME280;4665;51.368;6.782;2022-07-05T12:51:34;101844.19;;;21.61;41.87
9257;BME280;4665;51.368;6.782;2022-07-05T12:54:17;101848.56;;;21.62;41.49
9257;BME280;4665;51.368;6.782;2022-07-05T12:57:05;101847.19;;;21.79;40.98
9257;BME280;4665;51.368;6.782;2022-07-05T13:00:13;101849.69;;;21.88;41.24
9257;BME280;4665;51.368;6.782;2022-07-05T13:03:04;101829.47;;;21.97;40.54
9257;BME280;4665;51.368;6.782;2022-07-05T13:05:30;101826.38;;;22.06;40.44
9257;BME280;4665;51.368;6.782;2022-07-05T13:08:07;101845.19;;;22.15;40.28
9257;BME280;4665;51.368;6.782;2022-07-05T13:10:45;101835.75;;;22.04;40.48
9257;BME280;4665;51.368;6.782;2022-07-05T13:13:20;101822.19;;;22.04;40.81
9257;BME280;4665;51.368;6.782;2022-07-05T13:15:45;101825.53;;;22.06;40.30
9257;BME280;4665;51.368;6.782;2022-07-05T13:18:18;101819.69;;;21.96;40.99
9257;BME280;4665;51.368;6.782;2022-07-05T13:21:04;101813.00;;;21.92;40.73
9257;BME280;4665;51.368;6.782;2022-07-05T13:23:37;101830.97;;;22.06;40.53
9257;BME280;4665;51.368;6.782;2022-07-05T13:26:09;101837.00;;;22.01;41.05
9257;BME280;4665;51.368;6.782;2022-07-05T13:28:42;101820.94;;;21.93;41.87
9257;BME280;4665;51.368;6.782;2022-07-05T13:31:13;101832.63;;;22.00;41.68
9257;BME280;4665;51.368;6.782;2022-07-05T13:34:04;101840.91;;;21.85;42.91
9257;BME280;4665;51.368;6.782;2022-07-05T13:36:50;101823.41;;;21.95;42.60
9257;BME280;4665;51.368;6.782;2022-07-05T13:39:28;101825.03;;;21.76;42.72
9257;BME280;4665;51.368;6.782;2022-07-05T13:42:06;101832.97;;;21.77;43.77
9257;BME280;4665;51.368;6.782;2022-07-05T13:44:49;101831.72;;;21.73;44.00
9257;BME280;4665;51.368;6.782;2022-07-05T13:47:22;101833.63;;;21.79;44.82
9257;BME280;4665;51.368;6.782;2022-07-05T13:49:51;101835.09;;;21.89;45.11
9257;BME280;4665;51.368;6.782;2022-07-05T13:52:46;101820.50;;;21.90;47.03
9257;BME280;4665;51.368;6.782;2022-07-05T13:55:25;101828.03;;;22.01;43.42